Time;durP1;ratioP1;P1;durP2;ratioP2;P2;SDS_P1;SDS_P2;PMS_P1;PMS_P2;Temp;Humidity;BMP_temperature;BMP_pressure;BME280_temperature;BME280_humidity;BME280_pressure;Samples;Min_cycle;Max_cycle;Signal;HPM_P1;HPM_P2
2022/10/11 00:00:56;;;;;;;17.25;2.85;;;7.30;99.90;;;;;;4876442;29;20495;-92
2022/10/11 00:03:22;;;;;;;12.68;2.30;;;7.30;99.90;;;;;;4892262;29;20079;-91
2022/10/11 00:05:48;;;;;;;11.13;2.35;;;7.30;99.90;;;;;;4891743;29;20051;-92
2022/10/11 00:08:14;;;;;;;11.13;2.40;;;7.20;99.90;;;;;;4907392;29;20139;-93
2022/10/11 00:10:41;;;;;;;9.20;2.33;;;7.30;99.90;;;;;;4876575;29;20194;-92
2022/10/11 00:13:07;;;;;;;14.77;3.13;;;7.20;99.90;;;;;;4875830;29;20126;-91
2022/10/11 00:15:34;;;;;;;13.63;2.60;;;7.00;99.90;;;;;;4919700;29;20050;-91
2022/10/11 00:17:59;;;;;;;12.52;2.40;;;7.10;99.90;;;;;;4910135;29;20047;-90
2022/10/11 00:20:27;;;;;;;14.85;3.10;;;7.10;99.90;;;;;;4891208;29;20062;-93
2022/10/11 00:22:52;;;;;;;11.63;2.80;;;7.00;99.90;;;;;;4890968;29;20095;-91
2022/10/11 00:25:18;;;;;;;10.20;2.55;;;7.00;99.90;;;;;;4879119;29;20113;-91
2022/10/11 00:27:44;;;;;;;11.13;2.28;;;7.00;99.90;;;;;;4909607;29;20051;-91
2022/10/11 00:30:11;;;;;;;11.35;3.20;;;7.00;99.90;;;;;;4904379;29;20058;-91
2022/10/11 00:32:37;;;;;;;11.85;3.20;;;7.00;99.90;;;;;;4875485;29;20451;-91
2022/10/11 00:43:44;;;;;;;14.93;3.15;;;6.80;99.90;;;;;;4895582;29;20075;-93
2022/10/11 00:46:12;;;;;;;15.60;2.88;;;6.90;99.90;;;;;;4875245;29;20051;-92
2022/10/11 00:48:39;;;;;;;17.02;3.17;;;6.80;99.90;;;;;;4890653;29;20051;-92
2022/10/11 00:51:17;;;;;;;8.15;2.45;;;6.80;99.90;;;;;;4874899;29;20054;-92
2022/10/11 00:53:43;;;;;;;12.48;2.83;;;6.80;99.90;;;;;;4887542;29;20104;-91
2022/10/11 00:56:17;;;;;;;16.13;3.20;;;6.70;99.90;;;;;;4856964;29;20510;-92
2022/10/11 00:58:43;;;;;;;17.42;2.30;;;6.70;99.90;;;;;;4886812;29;20071;-92
2022/10/11 01:01:10;;;;;;;9.60;1.98;;;6.70;99.90;;;;;;4900039;23;20398;-63
2022/10/11 01:03:37;;;;;;;12.18;2.70;;;6.60;99.90;;;;;;4927941;28;20044;-63
2022/10/11 01:06:03;;;;;;;12.32;2.42;;;6.60;99.90;;;;;;4930057;28;20504;-63
2022/10/11 01:08:30;;;;;;;17.10;2.50;;;6.70;99.90;;;;;;4935274;28;20102;-63
2022/10/11 01:10:56;;;;;;;12.45;2.70;;;6.70;99.90;;;;;;4921274;28;20115;-63
2022/10/11 01:13:37;;;;;;;12.45;2.47;;;6.70;99.90;;;;;;4926979;28;20047;-63
2022/10/11 01:16:33;;;;;;;14.82;2.53;;;6.70;99.90;;;;;;4931477;28;20043;-63
2022/10/11 01:19:23;;;;;;;18.50;2.58;;;6.80;99.90;;;;;;4927546;28;20557;-64
2022/10/11 01:22:33;;;;;;;15.57;2.88;;;6.70;99.90;;;;;;4942029;28;20445;-63
2022/10/11 01:25:29;;;;;;;13.07;2.40;;;6.70;99.90;;;;;;4929712;28;20044;-63
2022/10/11 01:28:03;;;;;;;11.90;2.15;;;6.80;99.90;;;;;;4930061;28;20075;-63
2022/10/11 01:30:32;;;;;;;14.43;2.67;;;6.80;99.90;;;;;;4928547;28;20047;-64
2022/10/11 01:33:19;;;;;;;11.88;2.45;;;6.80;99.90;;;;;;4927900;28;20044;-63
2022/10/11 01:35:51;;;;;;;15.70;3.47;;;6.80;99.90;;;;;;4930176;28;20048;-63
2022/10/11 01:38:26;;;;;;;10.75;2.30;;;6.80;99.90;;;;;;4928397;28;20083;-63
2022/10/11 01:41:02;;;;;;;8.95;2.40;;;6.80;99.90;;;;;;4927469;28;20047;-63
2022/10/11 01:43:29;;;;;;;13.57;2.60;;;6.80;99.90;;;;;;4926501;28;20063;-63
2022/10/11 01:45:57;;;;;;;14.13;2.30;;;6.80;99.90;;;;;;4931689;28;20050;-63
2022/10/11 01:48:23;;;;;;;8.52;1.90;;;6.70;99.90;;;;;;4933186;28;20482;-63
2022/10/11 01:50:52;;;;;;;18.00;2.88;;;6.70;99.90;;;;;;4930859;28;20073;-63
2022/10/11 01:53:29;;;;;;;12.45;2.22;;;6.60;99.90;;;;;;4929206;28;20501;-63
2022/10/11 01:56:20;;;;;;;16.05;2.58;;;6.60;99.90;;;;;;4929198;28;20047;-63
2022/10/11 01:59:12;;;;;;;14.13;3.10;;;6.60;99.90;;;;;;4935993;28;20135;-63
2022/10/11 02:02:00;;;;;;;13.63;2.45;;;6.50;99.90;;;;;;4923420;28;20178;-63
2022/10/11 02:04:29;;;;;;;11.43;2.50;;;6.50;99.90;;;;;;4928452;28;20051;-63
2022/10/11 02:07:20;;;;;;;18.02;2.85;;;6.50;99.90;;;;;;4929058;28;20047;-63
2022/10/11 02:10:08;;;;;;;11.70;2.70;;;6.40;99.90;;;;;;4925042;28;20525;-63
2022/10/11 02:12:43;;;;;;;11.55;2.60;;;6.40;99.90;;;;;;4927126;28;20055;-63
2022/10/11 02:15:12;;;;;;;18.17;2.85;;;6.40;99.90;;;;;;4928498;28;20498;-63
2022/10/11 02:17:52;;;;;;;11.23;2.38;;;6.40;99.90;;;;;;4937591;29;20051;-63
2022/10/11 02:20:21;;;;;;;12.27;2.47;;;6.40;99.90;;;;;;4927433;28;20131;-63
2022/10/11 02:22:52;;;;;;;9.98;2.50;;;6.40;99.90;;;;;;4928343;28;20119;-63
2022/10/11 02:25:25;;;;;;;12.25;2.10;;;6.30;99.90;;;;;;4930015;28;20046;-63
2022/10/11 02:27:55;;;;;;;15.70;2.42;;;6.30;99.90;;;;;;4926238;28;20054;-63
2022/10/11 02:30:21;;;;;;;13.50;2.85;;;6.30;99.90;;;;;;4923795;28;20051;-63
2022/10/11 02:32:50;;;;;;;15.68;2.50;;;6.40;99.90;;;;;;4928851;28;20047;-63
2022/10/11 02:35:16;;;;;;;12.85;2.55;;;6.40;99.90;;;;;;4937872;28;20050;-63
2022/10/11 02:37:57;;;;;;;15.68;2.83;;;6.40;99.90;;;;;;4915473;29;20056;-63
2022/10/11 02:40:27;;;;;;;12.77;2.30;;;6.30;99.90;;;;;;4925621;28;20082;-63
2022/10/11 02:42:58;;;;;;;13.80;2.75;;;6.40;99.90;;;;;;4921754;28;20047;-63
2022/10/11 02:45:47;;;;;;;13.32;3.05;;;6.40;99.90;;;;;;4902709;28;20357;-63
2022/10/11 02:48:13;;;;;;;16.42;2.63;;;6.40;99.90;;;;;;4927954;28;20047;-63
2022/10/11 02:50:41;;;;;;;12.90;2.53;;;6.30;99.90;;;;;;4920079;29;20541;-63
2022/10/11 02:53:07;;;;;;;13.10;2.63;;;6.30;99.90;;;;;;4929092;28;20150;-63
2022/10/11 02:55:33;;;;;;;13.05;2.60;;;6.30;99.90;;;;;;4927031;28;20071;-63
2022/10/11 02:57:59;;;;;;;12.75;2.53;;;6.30;99.90;;;;;;4942705;28;20126;-63
2022/10/11 03:00:25;;;;;;;11.13;2.70;;;6.30;99.90;;;;;;4929119;28;20146;-64
2022/10/11 03:02:51;;;;;;;13.98;2.60;;;6.30;99.90;;;;;;4947821;28;20073;-63
2022/10/11 03:05:17;;;;;;;10.38;2.70;;;6.30;99.90;;;;;;4952398;28;20047;-63
2022/10/11 03:07:43;;;;;;;12.45;2.67;;;6.30;99.90;;;;;;4934609;28;20046;-63
2022/10/11 03:10:09;;;;;;;18.17;3.25;;;6.30;99.90;;;;;;4936111;28;20165;-63
2022/10/11 03:12:35;;;;;;;12.93;2.55;;;6.40;99.90;;;;;;4934029;28;20514;-63
2022/10/11 03:15:01;;;;;;;12.00;2.65;;;6.40;99.90;;;;;;4953020;28;20095;-63
2022/10/11 03:17:27;;;;;;;10.68;2.38;;;6.40;99.90;;;;;;4936373;28;20050;-63
2022/10/11 03:19:53;;;;;;;13.10;2.47;;;6.30;99.90;;;;;;4932710;28;20078;-63
2022/10/11 03:22:19;;;;;;;11.15;2.38;;;6.40;99.90;;;;;;4951229;28;20141;-63
2022/10/11 03:24:45;;;;;;;10.95;2.53;;;6.40;99.90;;;;;;4954158;28;20078;-63
2022/10/11 03:27:11;;;;;;;12.98;2.40;;;6.40;99.90;;;;;;4932700;28;20493;-63
2022/10/11 03:29:37;;;;;;;12.75;2.53;;;6.40;99.90;;;;;;4941870;28;20117;-63
2022/10/11 03:32:03;;;;;;;11.88;3.20;;;6.40;99.90;;;;;;4927491;28;20581;-63
2022/10/11 03:34:29;;;;;;;19.13;3.08;;;6.40;99.90;;;;;;4932004;28;20053;-63
2022/10/11 03:36:54;;;;;;;16.63;3.10;;;6.40;99.90;;;;;;4933647;28;20054;-63
2022/10/11 03:39:21;;;;;;;13.52;2.83;;;6.40;99.90;;;;;;4938799;28;20051;-63
2022/10/11 03:41:47;;;;;;;17.20;3.47;;;6.60;99.90;;;;;;4932484;28;20059;-63
2022/10/11 03:44:13;;;;;;;14.48;3.00;;;6.50;99.90;;;;;;4929130;28;20051;-63
2022/10/11 03:46:39;;;;;;;14.85;2.80;;;6.50;99.90;;;;;;4935317;28;20039;-63
2022/10/11 03:49:05;;;;;;;14.48;3.10;;;6.60;99.90;;;;;;4933752;28;20564;-63
2022/10/11 03:51:31;;;;;;;11.98;2.42;;;6.60;99.90;;;;;;4933860;28;20053;-63
2022/10/11 03:53:57;;;;;;;14.55;3.38;;;6.60;99.90;;;;;;4953726;28;20145;-63
2022/10/11 03:56:23;;;;;;;10.77;3.25;;;6.60;99.90;;;;;;4956244;28;20050;-63
2022/10/11 03:58:48;;;;;;;10.63;2.75;;;6.60;99.90;;;;;;4936617;28;20061;-63
2022/10/11 04:01:14;;;;;;;15.23;3.30;;;6.60;99.90;;;;;;4930209;28;20072;-63
2022/10/11 04:03:40;;;;;;;14.45;3.03;;;6.60;99.90;;;;;;4938572;28;20043;-63
2022/10/11 04:06:06;;;;;;;14.52;3.40;;;6.50;99.90;;;;;;4930668;28;20063;-63
2022/10/11 04:08:32;;;;;;;11.93;3.00;;;6.50;99.90;;;;;;4929149;29;20555;-63
2022/10/11 04:10:58;;;;;;;20.33;3.50;;;6.40;99.90;;;;;;4929669;28;20051;-63
2022/10/11 04:13:23;;;;;;;11.30;3.20;;;6.40;99.90;;;;;;4930758;28;20051;-63
2022/10/11 04:15:49;;;;;;;11.43;3.22;;;6.30;99.90;;;;;;4918451;29;20134;-63
2022/10/11 04:18:15;;;;;;;7.55;2.88;;;6.30;99.90;;;;;;4930783;28;20047;-63
2022/10/11 04:20:41;;;;;;;15.57;2.85;;;6.20;99.90;;;;;;4936633;28;20074;-63
2022/10/11 04:23:07;;;;;;;11.25;2.97;;;6.20;99.90;;;;;;4921651;28;20052;-63
2022/10/11 04:25:33;;;;;;;15.82;3.92;;;6.20;99.90;;;;;;4929833;28;20059;-63
2022/10/11 04:27:59;;;;;;;12.93;3.10;;;6.20;99.90;;;;;;4932054;28;20489;-63
2022/10/11 04:30:24;;;;;;;10.15;3.10;;;6.20;99.90;;;;;;4931816;28;20069;-63
2022/10/11 04:32:50;;;;;;;15.43;3.67;;;6.10;99.90;;;;;;4934411;28;20110;-63
2022/10/11 04:35:16;;;;;;;18.13;3.60;;;6.10;99.90;;;;;;4932255;28;20051;-63
2022/10/11 04:37:42;;;;;;;13.48;3.00;;;6.10;99.90;;;;;;4934658;28;20039;-63
2022/10/11 04:40:09;;;;;;;16.88;3.42;;;6.00;99.90;;;;;;4935215;28;20553;-63
2022/10/11 04:42:34;;;;;;;12.40;3.22;;;6.00;99.90;;;;;;4928832;28;20505;-63
2022/10/11 04:45:00;;;;;;;17.08;3.97;;;6.10;99.90;;;;;;4947370;28;20065;-63
2022/10/11 04:47:26;;;;;;;13.00;3.30;;;6.10;99.90;;;;;;4929707;28;20118;-63
2022/10/11 04:49:52;;;;;;;15.88;3.28;;;6.10;99.90;;;;;;4933100;29;20047;-63
2022/10/11 04:52:17;;;;;;;22.33;4.18;;;6.10;99.90;;;;;;4924883;28;20066;-63
2022/10/11 04:54:43;;;;;;;12.95;4.05;;;6.20;99.90;;;;;;4931392;28;20058;-63
2022/10/11 04:57:09;;;;;;;17.63;3.95;;;6.20;99.90;;;;;;4929954;29;20195;-63
2022/10/11 04:59:35;;;;;;;17.73;4.03;;;6.20;99.90;;;;;;4934018;28;20573;-63
2022/10/11 05:02:00;;;;;;;11.85;3.60;;;6.20;99.90;;;;;;4922035;29;20066;-63
2022/10/11 05:04:27;;;;;;;20.60;3.83;;;6.20;99.90;;;;;;4932134;28;20050;-64
2022/10/11 05:06:52;;;;;;;11.13;3.13;;;6.20;99.90;;;;;;4935232;28;20047;-63
2022/10/11 05:09:18;;;;;;;19.45;3.45;;;6.20;99.90;;;;;;4924445;28;20137;-63
2022/10/11 05:11:44;;;;;;;22.77;3.28;;;6.30;99.90;;;;;;4925449;28;20083;-63
2022/10/11 05:14:10;;;;;;;19.13;4.40;;;6.30;99.90;;;;;;4921929;28;20047;-63
2022/10/11 05:16:36;;;;;;;15.07;3.67;;;6.30;99.90;;;;;;4925105;28;20074;-63
2022/10/11 05:19:01;;;;;;;13.27;3.15;;;6.30;99.90;;;;;;4927062;28;20054;-63
2022/10/11 05:21:28;;;;;;;10.98;2.88;;;6.30;99.90;;;;;;4926454;28;20047;-63
2022/10/11 05:23:55;;;;;;;12.20;3.13;;;6.30;99.90;;;;;;4911092;28;20059;-63
2022/10/11 05:26:23;;;;;;;11.95;2.90;;;6.30;99.90;;;;;;4926319;28;20512;-63
2022/10/11 05:28:49;;;;;;;9.98;2.75;;;6.30;99.90;;;;;;4931591;28;20047;-63
2022/10/11 05:31:15;;;;;;;17.65;2.90;;;6.30;99.90;;;;;;4927469;28;20078;-63
2022/10/11 05:33:41;;;;;;;18.95;3.78;;;6.30;99.90;;;;;;4911432;28;20051;-63
2022/10/11 05:36:08;;;;;;;17.98;3.50;;;6.30;99.90;;;;;;4913869;28;20158;-63
2022/10/11 05:38:33;;;;;;;15.13;3.25;;;6.40;99.90;;;;;;4910997;28;20039;-63
2022/10/11 05:41:01;;;;;;;14.95;3.35;;;6.30;99.90;;;;;;4918383;28;20043;-63
2022/10/11 05:43:28;;;;;;;20.88;3.63;;;6.50;99.90;;;;;;4924750;29;20051;-63
2022/10/11 05:45:54;;;;;;;14.68;3.60;;;6.50;99.90;;;;;;4928381;28;20043;-63
2022/10/11 05:48:20;;;;;;;15.07;3.60;;;6.50;99.90;;;;;;4930684;28;20232;-63
2022/10/11 05:50:46;;;;;;;13.90;3.78;;;6.50;99.90;;;;;;4932377;28;20157;-63
2022/10/11 05:53:12;;;;;;;14.55;3.90;;;6.50;99.90;;;;;;4925649;28;21638;-63
2022/10/11 05:55:39;;;;;;;16.50;3.72;;;6.60;99.90;;;;;;4922395;29;20047;-63
2022/10/11 05:58:06;;;;;;;17.00;3.70;;;6.60;99.90;;;;;;4929563;28;20584;-63
2022/10/11 06:00:36;;;;;;;14.60;3.53;;;6.60;99.90;;;;;;4938211;28;20047;-62
2022/10/11 06:03:03;;;;;;;16.05;3.67;;;6.70;99.90;;;;;;4933864;28;20150;-62
2022/10/11 06:05:29;;;;;;;24.85;4.75;;;6.70;99.90;;;;;;4953450;28;20073;-62
2022/10/11 06:07:57;;;;;;;19.38;3.92;;;6.70;99.90;;;;;;4946860;28;20063;-63
2022/10/11 06:10:23;;;;;;;13.45;3.97;;;6.70;99.90;;;;;;4926930;28;20065;-62
2022/10/11 06:12:48;;;;;;;13.48;4.18;;;6.80;99.90;;;;;;4918775;28;20047;-57
2022/10/11 06:15:14;;;;;;;15.70;3.55;;;6.70;99.90;;;;;;4944862;28;20425;-56
2022/10/11 06:17:40;;;;;;;22.73;4.50;;;6.80;99.90;;;;;;4954398;28;20083;-56
2022/10/11 06:20:07;;;;;;;17.17;3.35;;;6.70;99.90;;;;;;4951108;28;20410;-57
2022/10/11 06:22:33;;;;;;;12.40;3.25;;;6.70;99.90;;;;;;4951533;28;20051;-57
2022/10/11 06:24:58;;;;;;;22.58;5.10;;;6.80;99.90;;;;;;4951354;28;20054;-57
2022/10/11 06:27:24;;;;;;;17.17;4.95;;;6.80;99.90;;;;;;4953262;28;20453;-56
2022/10/11 06:29:50;;;;;;;16.40;4.75;;;6.80;99.90;;;;;;4952202;28;20047;-57
2022/10/11 06:32:16;;;;;;;16.35;3.90;;;6.90;99.90;;;;;;4951187;28;20131;-57
2022/10/11 06:34:41;;;;;;;19.02;3.58;;;6.90;99.90;;;;;;4952545;28;20035;-57
2022/10/11 06:37:07;;;;;;;22.23;4.03;;;6.90;99.90;;;;;;4950112;28;20051;-57
2022/10/11 06:39:33;;;;;;;15.25;4.30;;;6.90;99.90;;;;;;4937665;28;20514;-56
2022/10/11 06:41:59;;;;;;;15.88;4.65;;;6.90;99.90;;;;;;4950514;28;20130;-57
2022/10/11 06:44:26;;;;;;;11.27;3.78;;;7.00;99.90;;;;;;4952429;28;20086;-57
2022/10/11 06:46:52;;;;;;;14.93;4.22;;;7.00;99.90;;;;;;4952792;28;20055;-57
2022/10/11 06:49:17;;;;;;;15.05;3.47;;;7.00;99.90;;;;;;4950817;28;20524;-55
2022/10/11 06:51:43;;;;;;;17.83;3.72;;;7.10;99.90;;;;;;4950805;28;20081;-56
2022/10/11 06:54:09;;;;;;;23.70;5.57;;;7.10;99.90;;;;;;4916780;28;20051;-57
2022/10/11 06:56:35;;;;;;;12.32;3.30;;;7.20;99.90;;;;;;4949705;28;20054;-58
2022/10/11 06:59:02;;;;;;;11.20;2.97;;;7.20;99.90;;;;;;4949904;28;20074;-57
2022/10/11 07:01:28;;;;;;;16.85;3.03;;;7.30;99.90;;;;;;4952439;28;20054;-56
2022/10/11 07:03:56;;;;;;;15.65;3.10;;;7.30;99.90;;;;;;4952248;28;20445;-57
2022/10/11 07:06:27;;;;;;;18.50;3.28;;;7.40;99.90;;;;;;4954330;28;20133;-57
2022/10/11 07:08:54;;;;;;;18.45;3.40;;;7.40;99.90;;;;;;4955118;28;20046;-56
2022/10/11 07:11:22;;;;;;;16.88;3.60;;;7.50;99.90;;;;;;4951803;28;20078;-57
2022/10/11 07:14:06;;;;;;;18.80;3.80;;;7.60;99.90;;;;;;4953314;28;20047;-58
2022/10/11 07:16:35;;;;;;;22.58;3.83;;;7.60;99.90;;;;;;4950962;28;20070;-57
2022/10/11 07:19:02;;;;;;;16.42;3.13;;;7.70;99.90;;;;;;4951804;28;20045;-57
2022/10/11 07:21:29;;;;;;;18.23;3.58;;;7.70;99.90;;;;;;4949271;28;20090;-57
2022/10/11 07:23:55;;;;;;;16.50;3.63;;;7.80;99.90;;;;;;4953024;28;20039;-57
2022/10/11 07:26:21;;;;;;;16.40;3.17;;;7.90;99.90;;;;;;4951609;28;20043;-57
2022/10/11 07:28:47;;;;;;;20.90;3.20;;;8.00;99.90;;;;;;4951651;28;20442;-57
2022/10/11 07:31:18;;;;;;;15.45;3.22;;;8.00;99.90;;;;;;4953499;28;20962;-57
2022/10/11 07:33:44;;;;;;;11.93;3.50;;;8.10;99.90;;;;;;4952272;28;20086;-57
2022/10/11 07:36:11;;;;;;;11.48;3.10;;;8.10;99.90;;;;;;4952195;28;20107;-58
2022/10/11 07:38:42;;;;;;;13.07;2.95;;;8.20;99.90;;;;;;4945061;28;20393;-59
2022/10/11 07:41:08;;;;;;;15.60;3.20;;;8.30;99.90;;;;;;4944115;28;20035;-57
2022/10/11 07:43:35;;;;;;;15.48;3.13;;;8.40;99.90;;;;;;4950840;28;20507;-59
2022/10/11 07:46:02;;;;;;;12.98;3.08;;;8.50;99.90;;;;;;4949712;28;20054;-57
2022/10/11 07:48:30;;;;;;;19.25;3.90;;;8.50;99.90;;;;;;4947131;28;20050;-58
2022/10/11 07:51:13;;;;;;;11.73;2.92;;;8.70;99.90;;;;;;4951350;28;20138;-58
2022/10/11 07:53:48;;;;;;;19.15;3.55;;;8.80;99.90;;;;;;4953182;28;20410;-56
2022/10/11 07:56:17;;;;;;;15.25;3.42;;;8.90;99.90;;;;;;4953019;28;20043;-57
2022/10/11 07:58:43;;;;;;;14.52;3.20;;;9.10;99.90;;;;;;4950464;28;20545;-58
2022/10/11 08:01:10;;;;;;;24.33;3.78;;;9.10;99.90;;;;;;4952930;28;20050;-57
2022/10/11 08:03:37;;;;;;;14.90;2.88;;;9.30;99.90;;;;;;4952321;28;20055;-57
2022/10/11 08:06:05;;;;;;;12.35;3.10;;;9.40;99.90;;;;;;4952219;28;20109;-55
2022/10/11 08:08:31;;;;;;;16.33;3.90;;;9.50;99.90;;;;;;4951141;28;20103;-57
2022/10/11 08:10:58;;;;;;;17.73;3.45;;;9.60;99.90;;;;;;4932297;28;20527;-56
2022/10/11 08:13:24;;;;;;;18.23;3.03;;;9.80;99.90;;;;;;4951536;28;20058;-58
2022/10/11 08:15:50;;;;;;;20.92;3.20;;;9.90;99.90;;;;;;4951380;28;20097;-58
2022/10/11 08:18:16;;;;;;;14.30;3.13;;;10.10;99.90;;;;;;4956739;28;20046;-56
2022/10/11 08:20:42;;;;;;;15.82;3.03;;;10.20;99.90;;;;;;4954068;28;20457;-58
2022/10/11 08:23:08;;;;;;;15.50;2.85;;;10.40;99.90;;;;;;4952660;28;20576;-57
2022/10/11 08:25:42;;;;;;;17.48;2.92;;;10.50;99.90;;;;;;4950975;28;20047;-56
2022/10/11 08:28:09;;;;;;;12.07;2.53;;;10.70;99.90;;;;;;4954454;28;20125;-59
2022/10/11 08:30:35;;;;;;;18.13;3.08;;;10.80;99.90;;;;;;4954526;28;20039;-58
2022/10/11 08:33:01;;;;;;;15.30;2.90;;;10.90;99.90;;;;;;4957887;28;20053;-57
2022/10/11 08:35:28;;;;;;;12.50;2.50;;;11.00;99.90;;;;;;4952793;28;20042;-59
2022/10/11 08:37:53;;;;;;;17.85;3.20;;;11.20;99.90;;;;;;4937416;28;20043;-56
2022/10/11 08:40:21;;;;;;;12.43;3.00;;;11.30;99.90;;;;;;4954496;28;20046;-55
2022/10/11 08:42:59;;;;;;;17.08;3.13;;;11.50;99.90;;;;;;4953629;28;20039;-57
2022/10/11 08:45:42;;;;;;;14.82;3.00;;;11.70;99.90;;;;;;4951151;28;20047;-55
2022/10/11 08:48:15;;;;;;;13.73;2.60;;;11.80;99.90;;;;;;4953735;28;20095;-56
2022/10/11 08:50:44;;;;;;;18.67;3.55;;;11.90;99.90;;;;;;4951504;28;20051;-56
2022/10/11 08:53:36;;;;;;;17.50;2.70;;;12.10;99.90;;;;;;4950206;28;20089;-58
2022/10/11 08:56:03;;;;;;;16.60;2.80;;;12.20;99.90;;;;;;4949406;28;20047;-54
2022/10/11 08:59:01;;;;;;;17.48;3.00;;;12.30;99.90;;;;;;4956044;28;20478;-59
2022/10/11 09:01:27;;;;;;;17.88;2.78;;;12.50;99.90;;;;;;4950859;28;20476;-58
2022/10/11 09:03:54;;;;;;;17.20;2.92;;;12.60;99.90;;;;;;4931582;28;20520;-56
2022/10/11 09:06:58;;;;;;;12.68;2.40;;;12.80;99.90;;;;;;4952928;28;20046;-53
2022/10/11 09:09:42;;;;;;;21.73;3.15;;;12.90;99.90;;;;;;4941122;28;20043;-57
2022/10/11 09:12:11;;;;;;;15.10;2.95;;;13.10;99.90;;;;;;4950288;28;20136;-58
2022/10/11 09:14:58;;;;;;;14.70;2.60;;;13.20;99.90;;;;;;4949260;28;20793;-58
2022/10/11 09:17:44;;;;;;;13.88;2.78;;;13.40;99.90;;;;;;4951089;28;20069;-57
2022/10/11 09:20:29;;;;;;;15.05;2.58;;;13.50;99.90;;;;;;4946374;28;20054;-57
2022/10/11 09:23:24;;;;;;;14.02;2.85;;;13.60;99.90;;;;;;4953053;28;20109;-58
2022/10/11 09:26:21;;;;;;;18.15;2.67;;;13.80;99.90;;;;;;4952369;28;20730;-59
2022/10/11 09:29:09;;;;;;;15.15;2.78;;;13.90;99.90;;;;;;4950382;28;20055;-56
2022/10/11 09:31:34;;;;;;;14.05;2.83;;;14.10;99.90;;;;;;4948653;28;20936;-58
2022/10/11 09:34:10;;;;;;;10.65;2.40;;;14.20;99.90;;;;;;4952496;28;20722;-57
2022/10/11 09:36:40;;;;;;;16.50;2.95;;;14.30;99.90;;;;;;4950187;28;20129;-56
2022/10/11 09:39:28;;;;;;;12.15;2.97;;;14.30;99.90;;;;;;4948229;28;20486;-58
2022/10/11 09:42:06;;;;;;;13.60;2.83;;;14.30;99.90;;;;;;4939995;28;20421;-58
2022/10/11 09:44:38;;;;;;;17.88;2.85;;;14.40;99.90;;;;;;4947566;28;20047;-58
2022/10/11 09:47:06;;;;;;;12.65;2.72;;;14.60;99.90;;;;;;4949173;28;20524;-58
2022/10/11 09:49:39;;;;;;;14.35;2.80;;;14.70;99.90;;;;;;4952089;28;20173;-54
2022/10/11 09:52:13;;;;;;;15.88;2.88;;;14.80;99.90;;;;;;4946242;28;20544;-56
2022/10/11 09:54:45;;;;;;;13.82;2.50;;;14.90;99.90;;;;;;4949084;28;20050;-57
2022/10/11 09:57:22;;;;;;;11.20;2.40;;;15.00;99.90;;;;;;4955727;28;20035;-58
2022/10/11 10:00:03;;;;;;;15.98;2.58;;;15.00;99.90;;;;;;4954416;28;20036;-58
2022/10/11 10:02:38;;;;;;;11.00;2.50;;;15.00;99.90;;;;;;4956313;28;20082;-58
2022/10/11 10:05:09;;;;;;;12.90;2.88;;;15.00;99.90;;;;;;4957396;28;20047;-59
2022/10/11 10:07:39;;;;;;;17.02;2.80;;;15.10;99.90;;;;;;4952263;28;20047;-57
2022/10/11 10:10:30;;;;;;;14.65;2.72;;;15.30;99.90;;;;;;4954815;28;20540;-54
2022/10/11 10:12:58;;;;;;;18.60;2.50;;;15.50;99.90;;;;;;4955817;28;20520;-58
2022/10/11 10:15:31;;;;;;;14.43;2.22;;;15.70;99.90;;;;;;4955137;28;20047;-58
2022/10/11 10:17:57;;;;;;;14.02;2.40;;;15.90;99.90;;;;;;4953058;28;20043;-57
2022/10/11 10:20:28;;;;;;;12.43;2.60;;;15.90;99.90;;;;;;4955128;28;20043;-57
2022/10/11 10:22:55;;;;;;;17.75;2.60;;;15.90;99.90;;;;;;4951251;28;20047;-56
2022/10/11 10:25:36;;;;;;;11.90;2.13;;;15.90;99.90;;;;;;4952437;28;20066;-58
2022/10/11 10:28:33;;;;;;;12.68;2.85;;;15.90;99.90;;;;;;4937118;28;20055;-58
2022/10/11 10:30:59;;;;;;;12.57;2.47;;;15.90;99.90;;;;;;4947429;28;20055;-58
2022/10/11 10:33:31;;;;;;;11.80;2.40;;;16.10;99.90;;;;;;4953664;28;20046;-57
2022/10/11 10:36:14;;;;;;;16.17;3.10;;;16.20;99.90;;;;;;4949974;28;20047;-59
2022/10/11 10:38:47;;;;;;;;;;;16.20;99.90;;;;;;4952348;28;20058;-58
2022/10/11 10:41:16;;;;;;;11.40;2.08;;;16.40;99.90;;;;;;4934116;28;19918;-57
2022/10/11 10:43:54;;;;;;;14.38;2.58;;;16.40;99.90;;;;;;4957128;28;20465;-59
2022/10/11 10:46:58;;;;;;;16.23;2.70;;;16.60;99.90;;;;;;4952825;28;20086;-59
2022/10/11 10:49:44;;;;;;;9.32;1.90;;;16.80;99.90;;;;;;4950364;28;20227;-56
2022/10/11 10:52:28;;;;;;;14.13;2.25;;;17.10;99.90;;;;;;4933661;28;20113;-58
2022/10/11 10:55:01;;;;;;;10.07;2.33;;;17.40;99.90;;;;;;4953038;28;20131;-58
2022/10/11 10:57:53;;;;;;;9.23;1.90;;;17.50;99.90;;;;;;4958712;28;20122;-56
2022/10/11 11:00:21;;;;;;;11.07;2.30;;;17.60;99.90;;;;;;4949652;28;20078;-55
2022/10/11 11:03:00;;;;;;;10.15;1.90;;;17.50;99.90;;;;;;4954711;28;20055;-55
2022/10/11 11:05:35;;;;;;;10.73;2.10;;;17.30;99.90;;;;;;4955546;28;20053;-56
2022/10/11 11:08:28;;;;;;;10.73;1.90;;;17.10;99.90;;;;;;4952325;28;20102;-56
2022/10/11 11:10:53;;;;;;;;;;;16.90;99.90;;;;;;4943261;28;20055;-55
2022/10/11 11:13:44;;;;;;;10.30;2.17;;;16.70;99.90;;;;;;4954893;28;20295;-55
2022/10/11 11:16:25;;;;;;;11.35;2.03;;;16.60;99.90;;;;;;4957005;28;20047;-54
2022/10/11 11:18:56;;;;;;;13.90;2.40;;;16.40;99.90;;;;;;4950058;28;20132;-56
2022/10/11 11:22:06;;;;;;;11.45;2.47;;;16.20;99.90;;;;;;4943294;28;20323;-55
2022/10/11 11:25:12;;;;;;;7.57;2.22;;;16.20;99.90;;;;;;4953122;28;20046;-56
2022/10/11 11:27:42;;;;;;;9.98;2.72;;;16.10;99.90;;;;;;4961706;28;20079;-55
2022/10/11 11:30:12;;;;;;;10.98;2.42;;;16.10;99.90;;;;;;4961683;28;20073;-54
2022/10/11 11:32:56;;;;;;;10.10;2.47;;;16.10;99.90;;;;;;4961397;28;20485;-54
2022/10/11 11:35:27;;;;;;;9.75;1.90;;;16.00;99.90;;;;;;4961405;28;20050;-55
2022/10/11 11:38:19;;;;;;;6.93;1.92;;;16.00;99.90;;;;;;4957125;28;20405;-54
2022/10/11 11:40:56;;;;;;;10.25;2.38;;;16.00;99.90;;;;;;4951760;28;20398;-56
2022/10/11 11:43:36;;;;;;;13.02;1.90;;;16.00;99.90;;;;;;4959785;28;20050;-55
2022/10/11 11:46:10;;;;;;;5.57;1.60;;;15.90;99.90;;;;;;4961192;28;20059;-55
2022/10/11 11:48:37;;;;;;;14.50;2.38;;;15.90;99.90;;;;;;4960981;28;20050;-54
2022/10/11 11:51:33;;;;;;;6.22;1.50;;;15.90;99.90;;;;;;4960282;28;20125;-55
2022/10/11 11:54:05;;;;;;;12.15;1.80;;;15.90;99.90;;;;;;4953375;28;20055;-55
2022/10/11 11:56:58;;;;;;;11.60;2.00;;;15.90;99.90;;;;;;4940054;28;20050;-54
2022/10/11 11:59:48;;;;;;;7.25;1.80;;;15.80;99.90;;;;;;4962798;28;20057;-55
2022/10/11 12:02:32;;;;;;;8.98;1.90;;;15.80;99.90;;;;;;4961504;28;20066;-54
2022/10/11 12:04:59;;;;;;;13.13;1.92;;;15.80;99.90;;;;;;4959063;28;20055;-55
2022/10/11 12:07:26;;;;;;;12.77;2.15;;;15.80;99.90;;;;;;4958921;28;20046;-56
2022/10/11 12:10:14;;;;;;;11.77;1.60;;;15.70;99.90;;;;;;4941248;28;20046;-55
2022/10/11 12:12:40;;;;;;;9.18;1.73;;;15.70;99.90;;;;;;4940508;28;20089;-56
2022/10/11 12:15:11;;;;;;;8.02;1.70;;;15.70;99.90;;;;;;4952014;28;20137;-55
2022/10/11 12:17:55;;;;;;;9.05;1.95;;;15.70;99.90;;;;;;4962490;28;20482;-53
2022/10/11 12:20:27;;;;;;;8.93;1.67;;;15.80;99.90;;;;;;4947971;28;20500;-55
2022/10/11 12:22:59;;;;;;;7.10;1.92;;;16.00;99.90;;;;;;4956033;28;20050;-54
2022/10/11 12:25:25;;;;;;;11.37;2.23;;;16.30;99.90;;;;;;4958264;28;20046;-55
2022/10/11 12:27:56;;;;;;;10.25;1.92;;;16.60;99.90;;;;;;4941593;28;20055;-53
2022/10/11 12:30:43;;;;;;;7.63;1.77;;;17.00;99.90;;;;;;4958076;28;20086;-54
2022/10/11 12:33:22;;;;;;;7.78;1.85;;;17.40;99.40;;;;;;4960343;28;20414;-55
2022/10/11 12:35:56;;;;;;;10.48;1.90;;;17.80;98.70;;;;;;4954602;28;20047;-54
2022/10/11 12:38:29;;;;;;;12.55;1.73;;;18.10;97.80;;;;;;4953168;28;20049;-55
2022/10/11 12:41:09;;;;;;;10.95;1.95;;;18.40;97.80;;;;;;4958508;28;20051;-54
2022/10/11 12:44:13;;;;;;;10.77;1.60;;;18.60;97.30;;;;;;4955281;28;20122;-52
2022/10/11 12:46:59;;;;;;;10.82;1.90;;;18.60;96.10;;;;;;4955986;28;20298;-52
2022/10/11 12:49:54;;;;;;;8.02;1.48;;;18.40;96.20;;;;;;4955976;28;20402;-54
2022/10/11 12:52:46;;;;;;;6.25;1.70;;;18.10;96.00;;;;;;4953831;28;20055;-54
2022/10/11 12:55:38;;;;;;;9.98;2.00;;;17.90;96.10;;;;;;4934674;28;21436;-55
2022/10/11 12:58:19;;;;;;;10.45;1.77;;;17.70;95.80;;;;;;4957168;28;20053;-55
2022/10/11 13:00:50;;;;;;;5.90;1.55;;;17.50;95.90;;;;;;4941847;28;20510;-54
2022/10/11 13:03:27;;;;;;;5.32;1.40;;;17.60;96.20;;;;;;4957801;28;20043;-55
2022/10/11 13:05:55;;;;;;;7.10;1.67;;;17.70;96.10;;;;;;4956973;28;20050;-55
2022/10/11 13:08:33;;;;;;;9.50;1.73;;;17.90;95.80;;;;;;4953795;28;20065;-56
2022/10/11 13:11:05;;;;;;;9.70;1.73;;;18.20;95.80;;;;;;4956803;28;20564;-55
2022/10/11 13:13:47;;;;;;;12.77;1.60;;;18.50;95.50;;;;;;4958889;28;20047;-54
2022/10/11 13:16:26;;;;;;;8.40;1.55;;;18.60;94.80;;;;;;4956652;28;20042;-55
2022/10/11 13:18:58;;;;;;;8.38;1.80;;;18.80;94.20;;;;;;4944168;28;20039;-56